sensor_id;sensor_type;location;lat;lon;timestamp;P1;durP1;ratioP1;P2;durP2;ratioP2
66802;SDS011;53705;49.860;8.744;2023-11-18T00:01:55;12.93;;;6.00;;
66802;SDS011;53705;49.860;8.744;2023-11-18T00:04:23;14.48;;;6.13;;
66802;SDS011;53705;49.860;8.744;2023-11-18T00:06:52;14.32;;;6.88;;
66802;SDS011;53705;49.860;8.744;2023-11-18T00:09:24;15.52;;;5.78;;
66802;SDS011;53705;49.860;8.744;2023-11-18T00:11:59;11.65;;;5.03;;
66802;SDS011;53705;49.860;8.744;2023-11-18T00:14:27;13.15;;;5.32;;
66802;SDS011;53705;49.860;8.744;2023-11-18T00:16:55;11.63;;;3.90;;
66802;SDS011;53705;49.860;8.744;2023-11-18T00:19:25;9.82;;;5.03;;
66802;SDS011;53705;49.860;8.744;2023-11-18T00:21:55;14.30;;;5.43;;
66802;SDS011;53705;49.860;8.744;2023-11-18T00:24:23;12.48;;;4.03;;
66802;SDS011;53705;49.860;8.744;2023-11-18T00:26:51;14.52;;;4.85;;
66802;SDS011;53705;49.860;8.744;2023-11-18T00:29:19;14.65;;;6.15;;
66802;SDS011;53705;49.860;8.744;2023-11-18T00:31:47;18.05;;;5.53;;
66802;SDS011;53705;49.860;8.744;2023-11-18T00:34:15;10.73;;;4.03;;
66802;SDS011;53705;49.860;8.744;2023-11-18T00:36:43;11.13;;;4.47;;
66802;SDS011;53705;49.860;8.744;2023-11-18T00:39:12;10.40;;;5.55;;
66802;SDS011;53705;49.860;8.744;2023-11-18T00:41:40;13.38;;;5.30;;
66802;SDS011;53705;49.860;8.744;2023-11-18T00:44:07;10.70;;;4.78;;
66802;SDS011;53705;49.860;8.744;2023-11-18T00:46:36;11.68;;;4.85;;
66802;SDS011;53705;49.860;8.744;2023-11-18T00:49:04;12.82;;;4.45;;
66802;SDS011;53705;49.860;8.744;2023-11-18T00:51:33;18.15;;;7.82;;
66802;SDS011;53705;49.860;8.744;2023-11-18T00:54:00;24.33;;;7.32;;
66802;SDS011;53705;49.860;8.744;2023-11-18T00:56:32;10.00;;;4.40;;
66802;SDS011;53705;49.860;8.744;2023-11-18T00:59:00;12.15;;;4.53;;
66802;SDS011;53705;49.860;8.744;2023-11-18T01:01:28;13.52;;;7.10;;
66802;SDS011;53705;49.860;8.744;2023-11-18T01:03:56;11.50;;;4.63;;
66802;SDS011;53705;49.860;8.744;2023-11-18T01:06:25;10.43;;;3.60;;
66802;SDS011;53705;49.860;8.744;2023-11-18T01:08:53;10.75;;;4.32;;
66802;SDS011;53705;49.860;8.744;2023-11-18T01:11:21;15.88;;;5.88;;
66802;SDS011;53705;49.860;8.744;2023-11-18T01:13:50;12.82;;;3.80;;
66802;SDS011;53705;49.860;8.744;2023-11-18T01:16:21;16.00;;;6.82;;
66802;SDS011;53705;49.860;8.744;2023-11-18T01:18:49;14.90;;;5.55;;
66802;SDS011;53705;49.860;8.744;2023-11-18T01:21:17;15.52;;;5.85;;
66802;SDS011;53705;49.860;8.744;2023-11-18T01:23:45;14.40;;;6.18;;
66802;SDS011;53705;49.860;8.744;2023-11-18T01:26:13;15.23;;;5.50;;
66802;SDS011;53705;49.860;8.744;2023-11-18T01:28:41;18.75;;;6.88;;
66802;SDS011;53705;49.860;8.744;2023-11-18T01:31:12;18.10;;;8.13;;
66802;SDS011;53705;49.860;8.744;2023-11-18T01:33:42;18.15;;;7.18;;
66802;SDS011;53705;49.860;8.744;2023-11-18T01:36:11;18.58;;;5.97;;
66802;SDS011;53705;49.860;8.744;2023-11-18T01:38:39;16.88;;;5.47;;
66802;SDS011;53705;49.860;8.744;2023-11-18T01:41:07;19.13;;;5.53;;
66802;SDS011;53705;49.860;8.744;2023-11-18T01:43:35;17.77;;;7.00;;
66802;SDS011;53705;49.860;8.744;2023-11-18T01:46:04;20.70;;;6.65;;
66802;SDS011;53705;49.860;8.744;2023-11-18T01:48:35;16.58;;;6.70;;
66802;SDS011;53705;49.860;8.744;2023-11-18T01:51:03;13.80;;;5.78;;
66802;SDS011;53705;49.860;8.744;2023-11-18T01:53:32;16.80;;;5.88;;
66802;SDS011;53705;49.860;8.744;2023-11-18T01:56:02;14.43;;;5.90;;
66802;SDS011;53705;49.860;8.744;2023-11-18T01:58:32;12.68;;;5.88;;
66802;SDS011;53705;49.860;8.744;2023-11-18T02:01:02;14.63;;;5.00;;
66802;SDS011;53705;49.860;8.744;2023-11-18T02:03:36;15.30;;;5.72;;
66802;SDS011;53705;49.860;8.744;2023-11-18T02:06:05;15.02;;;7.03;;
66802;SDS011;53705;49.860;8.744;2023-11-18T02:08:33;15.20;;;5.32;;
66802;SDS011;53705;49.860;8.744;2023-11-18T02:11:04;11.13;;;5.20;;
66802;SDS011;53705;49.860;8.744;2023-11-18T02:13:39;12.98;;;5.40;;
66802;SDS011;53705;49.860;8.744;2023-11-18T02:16:08;16.42;;;6.72;;
66802;SDS011;53705;49.860;8.744;2023-11-18T02:18:38;15.43;;;5.05;;
66802;SDS011;53705;49.860;8.744;2023-11-18T02:21:07;11.75;;;5.03;;
66802;SDS011;53705;49.860;8.744;2023-11-18T02:23:36;17.40;;;7.60;;
66802;SDS011;53705;49.860;8.744;2023-11-18T02:26:06;14.13;;;4.75;;
66802;SDS011;53705;49.860;8.744;2023-11-18T02:28:35;13.35;;;4.53;;
66802;SDS011;53705;49.860;8.744;2023-11-18T02:31:04;10.25;;;4.10;;
66802;SDS011;53705;49.860;8.744;2023-11-18T02:33:33;12.07;;;3.17;;
66802;SDS011;53705;49.860;8.744;2023-11-18T02:36:03;13.55;;;6.55;;
66802;SDS011;53705;49.860;8.744;2023-11-18T02:38:34;12.27;;;5.05;;
66802;SDS011;53705;49.860;8.744;2023-11-18T02:41:06;11.75;;;4.00;;
66802;SDS011;53705;49.860;8.744;2023-11-18T02:43:36;12.48;;;4.22;;
66802;SDS011;53705;49.860;8.744;2023-11-18T02:46:06;11.63;;;4.75;;
66802;SDS011;53705;49.860;8.744;2023-11-18T02:48:35;11.88;;;5.88;;
66802;SDS011;53705;49.860;8.744;2023-11-18T02:51:04;11.30;;;5.10;;
66802;SDS011;53705;49.860;8.744;2023-11-18T02:53:34;16.85;;;5.90;;
66802;SDS011;53705;49.860;8.744;2023-11-18T02:56:02;12.95;;;5.15;;
66802;SDS011;53705;49.860;8.744;2023-11-18T02:58:32;14.70;;;5.97;;
66802;SDS011;53705;49.860;8.744;2023-11-18T03:01:00;14.80;;;6.22;;
66802;SDS011;53705;49.860;8.744;2023-11-18T03:03:28;10.18;;;4.38;;
66802;SDS011;53705;49.860;8.744;2023-11-18T03:05:56;12.68;;;3.67;;
66802;SDS011;53705;49.860;8.744;2023-11-18T03:08:26;12.32;;;4.50;;
66802;SDS011;53705;49.860;8.744;2023-11-18T03:10:56;11.30;;;4.25;;
66802;SDS011;53705;49.860;8.744;2023-11-18T03:13:25;10.57;;;3.58;;
66802;SDS011;53705;49.860;8.744;2023-11-18T03:15:54;14.25;;;5.03;;
66802;SDS011;53705;49.860;8.744;2023-11-18T03:18:23;15.52;;;5.10;;
66802;SDS011;53705;49.860;8.744;2023-11-18T03:20:50;14.23;;;5.90;;
66802;SDS011;53705;49.860;8.744;2023-11-18T03:23:18;13.55;;;4.75;;
66802;SDS011;53705;49.860;8.744;2023-11-18T03:25:46;14.60;;;4.95;;
66802;SDS011;53705;49.860;8.744;2023-11-18T03:28:14;13.68;;;4.75;;
66802;SDS011;53705;49.860;8.744;2023-11-18T03:30:42;12.73;;;4.78;;
66802;SDS011;53705;49.860;8.744;2023-11-18T03:33:11;12.80;;;5.88;;
66802;SDS011;53705;49.860;8.744;2023-11-18T03:35:39;16.60;;;6.95;;
66802;SDS011;53705;49.860;8.744;2023-11-18T03:38:07;11.48;;;4.97;;
66802;SDS011;53705;49.860;8.744;2023-11-18T03:40:34;15.25;;;5.22;;
66802;SDS011;53705;49.860;8.744;2023-11-18T03:43:03;12.98;;;5.70;;
66802;SDS011;53705;49.860;8.744;2023-11-18T03:45:30;17.92;;;7.53;;
66802;SDS011;53705;49.860;8.744;2023-11-18T03:47:58;20.90;;;5.45;;
66802;SDS011;53705;49.860;8.744;2023-11-18T03:50:28;9.32;;;3.33;;
66802;SDS011;53705;49.860;8.744;2023-11-18T03:52:56;11.15;;;5.00;;
66802;SDS011;53705;49.860;8.744;2023-11-18T03:55:25;12.85;;;4.10;;
66802;SDS011;53705;49.860;8.744;2023-11-18T03:57:52;8.38;;;3.92;;
66802;SDS011;53705;49.860;8.744;2023-11-18T04:00:21;10.18;;;3.90;;
66802;SDS011;53705;49.860;8.744;2023-11-18T04:02:48;11.20;;;4.07;;
66802;SDS011;53705;49.860;8.744;2023-11-18T04:05:18;9.38;;;4.82;;
66802;SDS011;53705;49.860;8.744;2023-11-18T04:07:47;13.48;;;5.35;;
66802;SDS011;53705;49.860;8.744;2023-11-18T04:10:16;9.80;;;3.88;;
66802;SDS011;53705;49.860;8.744;2023-11-18T04:12:44;9.25;;;3.65;;
66802;SDS011;53705;49.860;8.744;2023-11-18T04:15:15;14.43;;;4.00;;
66802;SDS011;53705;49.860;8.744;2023-11-18T04:17:42;9.25;;;3.10;;
66802;SDS011;53705;49.860;8.744;2023-11-18T04:20:11;8.75;;;3.03;;
66802;SDS011;53705;49.860;8.744;2023-11-18T04:22:43;14.18;;;5.93;;
66802;SDS011;53705;49.860;8.744;2023-11-18T04:25:12;9.82;;;3.67;;
66802;SDS011;53705;49.860;8.744;2023-11-18T04:27:41;14.60;;;5.40;;
66802;SDS011;53705;49.860;8.744;2023-11-18T04:30:12;9.98;;;4.18;;
66802;SDS011;53705;49.860;8.744;2023-11-18T04:32:40;19.50;;;5.78;;
66802;SDS011;53705;49.860;8.744;2023-11-18T04:35:10;14.90;;;6.50;;
66802;SDS011;53705;49.860;8.744;2023-11-18T04:37:39;13.60;;;5.70;;
66802;SDS011;53705;49.860;8.744;2023-11-18T04:40:10;15.40;;;5.20;;
66802;SDS011;53705;49.860;8.744;2023-11-18T04:42:41;11.02;;;5.15;;
66802;SDS011;53705;49.860;8.744;2023-11-18T04:45:11;13.07;;;4.55;;
66802;SDS011;53705;49.860;8.744;2023-11-18T04:47:40;9.88;;;4.18;;
66802;SDS011;53705;49.860;8.744;2023-11-18T04:50:10;14.60;;;5.28;;
66802;SDS011;53705;49.860;8.744;2023-11-18T04:52:38;10.82;;;4.18;;
66802;SDS011;53705;49.860;8.744;2023-11-18T04:55:07;11.85;;;4.20;;
66802;SDS011;53705;49.860;8.744;2023-11-18T04:57:35;13.15;;;5.13;;
66802;SDS011;53705;49.860;8.744;2023-11-18T05:00:07;11.43;;;3.92;;
66802;SDS011;53705;49.860;8.744;2023-11-18T05:02:38;8.48;;;4.05;;
66802;SDS011;53705;49.860;8.744;2023-11-18T05:05:06;11.25;;;2.85;;
66802;SDS011;53705;49.860;8.744;2023-11-18T05:07:34;11.77;;;4.03;;
66802;SDS011;53705;49.860;8.744;2023-11-18T05:10:02;11.60;;;4.13;;
66802;SDS011;53705;49.860;8.744;2023-11-18T05:12:30;10.60;;;4.28;;
66802;SDS011;53705;49.860;8.744;2023-11-18T05:15:00;14.40;;;4.47;;
66802;SDS011;53705;49.860;8.744;2023-11-18T05:17:31;11.90;;;4.97;;
66802;SDS011;53705;49.860;8.744;2023-11-18T05:19:59;9.77;;;3.22;;
66802;SDS011;53705;49.860;8.744;2023-11-18T05:22:27;12.60;;;3.53;;
66802;SDS011;53705;49.860;8.744;2023-11-18T05:24:55;11.52;;;4.10;;
66802;SDS011;53705;49.860;8.744;2023-11-18T05:27:22;10.55;;;4.80;;
66802;SDS011;53705;49.860;8.744;2023-11-18T05:29:50;11.50;;;4.72;;
66802;SDS011;53705;49.860;8.744;2023-11-18T05:32:21;12.88;;;5.30;;
66802;SDS011;53705;49.860;8.744;2023-11-18T05:34:51;14.88;;;6.63;;
66802;SDS011;53705;49.860;8.744;2023-11-18T05:37:21;9.88;;;5.43;;
66802;SDS011;53705;49.860;8.744;2023-11-18T05:39:49;11.15;;;4.13;;
66802;SDS011;53705;49.860;8.744;2023-11-18T05:42:25;7.75;;;3.85;;
66802;SDS011;53705;49.860;8.744;2023-11-18T05:44:57;9.32;;;3.58;;
66802;SDS011;53705;49.860;8.744;2023-11-18T05:47:26;8.43;;;4.10;;
66802;SDS011;53705;49.860;8.744;2023-11-18T05:49:55;6.00;;;1.98;;
66802;SDS011;53705;49.860;8.744;2023-11-18T05:52:23;6.38;;;2.70;;
66802;SDS011;53705;49.860;8.744;2023-11-18T05:54:51;6.43;;;3.25;;
66802;SDS011;53705;49.860;8.744;2023-11-18T05:57:18;7.10;;;2.95;;
66802;SDS011;53705;49.860;8.744;2023-11-18T05:59:46;6.05;;;2.60;;
66802;SDS011;53705;49.860;8.744;2023-11-18T06:02:15;13.43;;;4.20;;
66802;SDS011;53705;49.860;8.744;2023-11-18T06:04:45;12.27;;;3.72;;
66802;SDS011;53705;49.860;8.744;2023-11-18T06:07:14;6.93;;;4.05;;
66802;SDS011;53705;49.860;8.744;2023-11-18T06:09:43;10.68;;;4.03;;
66802;SDS011;53705;49.860;8.744;2023-11-18T06:12:12;7.22;;;3.08;;
66802;SDS011;53705;49.860;8.744;2023-11-18T06:14:40;8.52;;;3.53;;
66802;SDS011;53705;49.860;8.744;2023-11-18T06:17:08;6.65;;;3.97;;
66802;SDS011;53705;49.860;8.744;2023-11-18T06:19:39;7.90;;;2.80;;
66802;SDS011;53705;49.860;8.744;2023-11-18T06:22:07;10.45;;;3.10;;
66802;SDS011;53705;49.860;8.744;2023-11-18T06:24:38;8.55;;;3.42;;
66802;SDS011;53705;49.860;8.744;2023-11-18T06:27:06;10.60;;;3.38;;
66802;SDS011;53705;49.860;8.744;2023-11-18T06:29:35;10.93;;;3.50;;
66802;SDS011;53705;49.860;8.744;2023-11-18T06:32:03;7.63;;;3.33;;
66802;SDS011;53705;49.860;8.744;2023-11-18T06:34:32;11.02;;;4.47;;
66802;SDS011;53705;49.860;8.744;2023-11-18T06:37:00;12.40;;;4.05;;
66802;SDS011;53705;49.860;8.744;2023-11-18T06:39:28;6.90;;;3.00;;
66802;SDS011;53705;49.860;8.744;2023-11-18T06:41:58;10.35;;;4.20;;
66802;SDS011;53705;49.860;8.744;2023-11-18T06:44:25;10.95;;;6.05;;
66802;SDS011;53705;49.860;8.744;2023-11-18T06:46:53;12.02;;;4.60;;
66802;SDS011;53705;49.860;8.744;2023-11-18T06:49:22;12.63;;;4.32;;
66802;SDS011;53705;49.860;8.744;2023-11-18T06:51:52;11.63;;;3.85;;
66802;SDS011;53705;49.860;8.744;2023-11-18T06:54:20;11.20;;;5.05;;
66802;SDS011;53705;49.860;8.744;2023-11-18T06:56:48;12.18;;;4.60;;
66802;SDS011;53705;49.860;8.744;2023-11-18T06:59:19;10.10;;;3.80;;
66802;SDS011;53705;49.860;8.744;2023-11-18T07:01:47;10.63;;;4.20;;
66802;SDS011;53705;49.860;8.744;2023-11-18T07:04:16;8.50;;;3.90;;
66802;SDS011;53705;49.860;8.744;2023-11-18T07:06:44;10.23;;;3.95;;
66802;SDS011;53705;49.860;8.744;2023-11-18T07:09:12;11.02;;;4.88;;
66802;SDS011;53705;49.860;8.744;2023-11-18T07:11:44;12.77;;;4.88;;
66802;SDS011;53705;49.860;8.744;2023-11-18T07:14:14;12.82;;;4.85;;
66802;SDS011;53705;49.860;8.744;2023-11-18T07:16:44;13.25;;;4.88;;
66802;SDS011;53705;49.860;8.744;2023-11-18T07:19:12;12.77;;;6.10;;
66802;SDS011;53705;49.860;8.744;2023-11-18T07:21:47;11.25;;;4.82;;
66802;SDS011;53705;49.860;8.744;2023-11-18T07:24:16;12.18;;;4.70;;
66802;SDS011;53705;49.860;8.744;2023-11-18T07:26:44;11.02;;;4.97;;
66802;SDS011;53705;49.860;8.744;2023-11-18T07:29:12;10.50;;;4.38;;
66802;SDS011;53705;49.860;8.744;2023-11-18T07:31:40;11.57;;;5.60;;
66802;SDS011;53705;49.860;8.744;2023-11-18T07:34:11;14.07;;;4.97;;
66802;SDS011;53705;49.860;8.744;2023-11-18T07:36:39;13.57;;;5.68;;
66802;SDS011;53705;49.860;8.744;2023-11-18T07:39:07;11.27;;;4.88;;
66802;SDS011;53705;49.860;8.744;2023-11-18T07:41:42;12.35;;;4.88;;
66802;SDS011;53705;49.860;8.744;2023-11-18T07:44:11;13.63;;;4.47;;
66802;SDS011;53705;49.860;8.744;2023-11-18T07:46:40;14.93;;;5.72;;
66802;SDS011;53705;49.860;8.744;2023-11-18T07:49:11;13.60;;;6.28;;
66802;SDS011;53705;49.860;8.744;2023-11-18T07:51:39;12.40;;;4.15;;
66802;SDS011;53705;49.860;8.744;2023-11-18T07:54:08;13.73;;;4.47;;
66802;SDS011;53705;49.860;8.744;2023-11-18T07:56:37;12.32;;;4.32;;
66802;SDS011;53705;49.860;8.744;2023-11-18T07:59:05;13.38;;;3.88;;
66802;SDS011;53705;49.860;8.744;2023-11-18T08:01:35;11.63;;;3.85;;
66802;SDS011;53705;49.860;8.744;2023-11-18T08:04:03;13.13;;;6.00;;
66802;SDS011;53705;49.860;8.744;2023-11-18T08:06:35;9.50;;;5.05;;
66802;SDS011;53705;49.860;8.744;2023-11-18T08:09:03;18.75;;;7.25;;
66802;SDS011;53705;49.860;8.744;2023-11-18T08:11:36;14.32;;;5.72;;
66802;SDS011;53705;49.860;8.744;2023-11-18T08:14:08;16.85;;;6.50;;
66802;SDS011;53705;49.860;8.744;2023-11-18T08:16:36;13.75;;;5.63;;
66802;SDS011;53705;49.860;8.744;2023-11-18T08:19:04;17.10;;;5.22;;
66802;SDS011;53705;49.860;8.744;2023-11-18T08:21:36;10.82;;;4.68;;
66802;SDS011;53705;49.860;8.744;2023-11-18T08:24:06;15.40;;;5.65;;
66802;SDS011;53705;49.860;8.744;2023-11-18T08:26:35;17.45;;;6.93;;
66802;SDS011;53705;49.860;8.744;2023-11-18T08:29:03;15.80;;;6.15;;
66802;SDS011;53705;49.860;8.744;2023-11-18T08:31:31;14.88;;;5.63;;
66802;SDS011;53705;49.860;8.744;2023-11-18T08:33:59;14.05;;;5.50;;
66802;SDS011;53705;49.860;8.744;2023-11-18T08:36:27;15.45;;;6.68;;
66802;SDS011;53705;49.860;8.744;2023-11-18T08:56:55;12.85;;;6.15;;
66802;SDS011;53705;49.860;8.744;2023-11-18T09:01:57;20.67;;;6.85;;
66802;SDS011;53705;49.860;8.744;2023-11-18T09:04:26;16.42;;;7.13;;
66802;SDS011;53705;49.860;8.744;2023-11-18T09:06:54;16.00;;;6.60;;
66802;SDS011;53705;49.860;8.744;2023-11-18T09:09:26;15.85;;;7.38;;
66802;SDS011;53705;49.860;8.744;2023-11-18T09:11:57;19.70;;;7.35;;
66802;SDS011;53705;49.860;8.744;2023-11-18T09:14:29;15.30;;;6.65;;
66802;SDS011;53705;49.860;8.744;2023-11-18T09:16:57;17.15;;;7.63;;
66802;SDS011;53705;49.860;8.744;2023-11-18T09:19:26;17.08;;;7.13;;
66802;SDS011;53705;49.860;8.744;2023-11-18T09:21:54;17.60;;;6.65;;
66802;SDS011;53705;49.860;8.744;2023-11-18T09:24:22;15.95;;;6.38;;
66802;SDS011;53705;49.860;8.744;2023-11-18T09:26:52;18.88;;;6.63;;
66802;SDS011;53705;49.860;8.744;2023-11-18T09:29:22;15.95;;;6.07;;
66802;SDS011;53705;49.860;8.744;2023-11-18T09:31:51;17.77;;;7.97;;
66802;SDS011;53705;49.860;8.744;2023-11-18T09:34:21;19.38;;;7.25;;
66802;SDS011;53705;49.860;8.744;2023-11-18T09:36:54;12.13;;;4.38;;
66802;SDS011;53705;49.860;8.744;2023-11-18T09:39:22;8.88;;;3.67;;
66802;SDS011;53705;49.860;8.744;2023-11-18T09:42:08;13.57;;;4.57;;
66802;SDS011;53705;49.860;8.744;2023-11-18T09:44:39;11.13;;;4.38;;
66802;SDS011;53705;49.860;8.744;2023-11-18T09:47:12;12.38;;;5.05;;
66802;SDS011;53705;49.860;8.744;2023-11-18T09:49:48;14.00;;;4.03;;
66802;SDS011;53705;49.860;8.744;2023-11-18T09:52:19;12.93;;;4.65;;
66802;SDS011;53705;49.860;8.744;2023-11-18T09:54:58;8.85;;;4.38;;
66802;SDS011;53705;49.860;8.744;2023-11-18T09:57:31;11.07;;;4.38;;
66802;SDS011;53705;49.860;8.744;2023-11-18T10:00:04;12.68;;;3.80;;
66802;SDS011;53705;49.860;8.744;2023-11-18T10:02:38;10.98;;;4.68;;
66802;SDS011;53705;49.860;8.744;2023-11-18T10:05:08;10.55;;;3.58;;
66802;SDS011;53705;49.860;8.744;2023-11-18T10:07:39;13.98;;;4.00;;
66802;SDS011;53705;49.860;8.744;2023-11-18T10:10:08;11.10;;;3.85;;
66802;SDS011;53705;49.860;8.744;2023-11-18T10:12:41;12.80;;;3.58;;
66802;SDS011;53705;49.860;8.744;2023-11-18T10:15:13;11.60;;;4.82;;
66802;SDS011;53705;49.860;8.744;2023-11-18T10:17:44;12.05;;;3.58;;
66802;SDS011;53705;49.860;8.744;2023-11-18T10:20:22;11.45;;;4.15;;
66802;SDS011;53705;49.860;8.744;2023-11-18T10:23:08;10.95;;;3.05;;
66802;SDS011;53705;49.860;8.744;2023-11-18T10:25:38;21.73;;;8.30;;
66802;SDS011;53705;49.860;8.744;2023-11-18T10:28:10;14.50;;;5.55;;
66802;SDS011;53705;49.860;8.744;2023-11-18T10:30:49;8.73;;;2.92;;
66802;SDS011;53705;49.860;8.744;2023-11-18T10:33:17;8.85;;;3.75;;
66802;SDS011;53705;49.860;8.744;2023-11-18T10:35:49;8.32;;;2.92;;
66802;SDS011;53705;49.860;8.744;2023-11-18T10:38:18;8.32;;;3.72;;
66802;SDS011;53705;49.860;8.744;2023-11-18T10:40:46;7.35;;;2.30;;
66802;SDS011;53705;49.860;8.744;2023-11-18T10:43:13;7.35;;;2.45;;
66802;SDS011;53705;49.860;8.744;2023-11-18T10:45:43;10.15;;;3.17;;
66802;SDS011;53705;49.860;8.744;2023-11-18T10:48:15;6.43;;;1.98;;
66802;SDS011;53705;49.860;8.744;2023-11-18T10:50:47;4.97;;;1.95;;
66802;SDS011;53705;49.860;8.744;2023-11-18T10:53:17;4.60;;;1.88;;
66802;SDS011;53705;49.860;8.744;2023-11-18T10:55:45;5.30;;;2.42;;
66802;SDS011;53705;49.860;8.744;2023-11-18T10:58:13;4.00;;;1.55;;
66802;SDS011;53705;49.860;8.744;2023-11-18T11:00:45;5.30;;;1.90;;
66802;SDS011;53705;49.860;8.744;2023-11-18T11:03:15;5.38;;;1.77;;
66802;SDS011;53705;49.860;8.744;2023-11-18T11:05:45;8.43;;;2.70;;
66802;SDS011;53705;49.860;8.744;2023-11-18T11:08:14;6.75;;;2.08;;
66802;SDS011;53705;49.860;8.744;2023-11-18T11:10:54;5.18;;;2.90;;
66802;SDS011;53705;49.860;8.744;2023-11-18T11:13:25;4.10;;;1.48;;
66802;SDS011;53705;49.860;8.744;2023-11-18T11:15:56;4.30;;;1.35;;
66802;SDS011;53705;49.860;8.744;2023-11-18T11:18:26;4.18;;;1.27;;
66802;SDS011;53705;49.860;8.744;2023-11-18T11:21:01;5.53;;;1.42;;
66802;SDS011;53705;49.860;8.744;2023-11-18T11:23:35;6.45;;;1.80;;
66802;SDS011;53705;49.860;8.744;2023-11-18T11:26:13;4.97;;;1.08;;
66802;SDS011;53705;49.860;8.744;2023-11-18T11:28:48;4.40;;;1.15;;
66802;SDS011;53705;49.860;8.744;2023-11-18T11:31:20;4.75;;;2.10;;
66802;SDS011;53705;49.860;8.744;2023-11-18T11:33:53;5.13;;;2.33;;
66802;SDS011;53705;49.860;8.744;2023-11-18T11:36:28;6.97;;;2.05;;
66802;SDS011;53705;49.860;8.744;2023-11-18T11:38:58;5.38;;;1.30;;
66802;SDS011;53705;49.860;8.744;2023-11-18T11:41:28;4.95;;;1.67;;
66802;SDS011;53705;49.860;8.744;2023-11-18T11:43:56;4.93;;;1.70;;
66802;SDS011;53705;49.860;8.744;2023-11-18T11:46:25;5.72;;;3.47;;
66802;SDS011;53705;49.860;8.744;2023-11-18T11:49:01;7.63;;;1.75;;
66802;SDS011;53705;49.860;8.744;2023-11-18T11:51:37;4.53;;;1.52;;
66802;SDS011;53705;49.860;8.744;2023-11-18T11:54:06;4.07;;;1.35;;
66802;SDS011;53705;49.860;8.744;2023-11-18T11:56:42;5.05;;;1.08;;
66802;SDS011;53705;49.860;8.744;2023-11-18T11:59:15;4.03;;;1.23;;
66802;SDS011;53705;49.860;8.744;2023-11-18T12:01:44;6.43;;;1.48;;
66802;SDS011;53705;49.860;8.744;2023-11-18T12:04:21;4.22;;;1.15;;
66802;SDS011;53705;49.860;8.744;2023-11-18T12:06:57;7.10;;;1.00;;
66802;SDS011;53705;49.860;8.744;2023-11-18T12:09:43;8.32;;;1.80;;
66802;SDS011;53705;49.860;8.744;2023-11-18T12:12:19;3.67;;;1.30;;
66802;SDS011;53705;49.860;8.744;2023-11-18T12:14:51;6.05;;;2.25;;
66802;SDS011;53705;49.860;8.744;2023-11-18T12:17:22;5.53;;;2.05;;
66802;SDS011;53705;49.860;8.744;2023-11-18T12:20:00;4.38;;;2.08;;
66802;SDS011;53705;49.860;8.744;2023-11-18T12:28:09;5.32;;;1.73;;
66802;SDS011;53705;49.860;8.744;2023-11-18T12:30:39;6.70;;;1.88;;
66802;SDS011;53705;49.860;8.744;2023-11-18T12:33:18;8.52;;;1.60;;
66802;SDS011;53705;49.860;8.744;2023-11-18T12:39:06;5.30;;;1.25;;
66802;SDS011;53705;49.860;8.744;2023-11-18T12:41:40;10.90;;;1.27;;
66802;SDS011;53705;49.860;8.744;2023-11-18T12:44:13;5.80;;;1.55;;
66802;SDS011;53705;49.860;8.744;2023-11-18T12:46:48;4.28;;;1.27;;
66802;SDS011;53705;49.860;8.744;2023-11-18T12:49:17;6.28;;;1.98;;
66802;SDS011;53705;49.860;8.744;2023-11-18T12:51:50;4.60;;;1.38;;
66802;SDS011;53705;49.860;8.744;2023-11-18T12:54:21;3.65;;;1.23;;
66802;SDS011;53705;49.860;8.744;2023-11-18T12:56:51;4.90;;;2.05;;
66802;SDS011;53705;49.860;8.744;2023-11-18T12:59:20;2.88;;;1.02;;
66802;SDS011;53705;49.860;8.744;2023-11-18T13:01:52;3.95;;;1.23;;
66802;SDS011;53705;49.860;8.744;2023-11-18T13:04:26;3.05;;;0.43;;
66802;SDS011;53705;49.860;8.744;2023-11-18T13:06:55;2.30;;;0.35;;
66802;SDS011;53705;49.860;8.744;2023-11-18T13:09:24;4.78;;;1.30;;
66802;SDS011;53705;49.860;8.744;2023-11-18T13:11:59;2.25;;;0.65;;
66802;SDS011;53705;49.860;8.744;2023-11-18T13:14:31;2.97;;;0.50;;
66802;SDS011;53705;49.860;8.744;2023-11-18T13:17:04;3.55;;;1.80;;
66802;SDS011;53705;49.860;8.744;2023-11-18T13:19:33;2.78;;;1.55;;
66802;SDS011;53705;49.860;8.744;2023-11-18T13:22:02;4.07;;;0.38;;
66802;SDS011;53705;49.860;8.744;2023-11-18T13:24:31;3.17;;;0.90;;
66802;SDS011;53705;49.860;8.744;2023-11-18T13:27:04;2.75;;;0.70;;
66802;SDS011;53705;49.860;8.744;2023-11-18T13:29:34;3.20;;;0.60;;
66802;SDS011;53705;49.860;8.744;2023-11-18T13:32:03;4.60;;;0.95;;
66802;SDS011;53705;49.860;8.744;2023-11-18T13:34:31;3.72;;;0.43;;
66802;SDS011;53705;49.860;8.744;2023-11-18T13:37:01;2.00;;;1.33;;
66802;SDS011;53705;49.860;8.744;2023-11-18T13:39:32;2.75;;;0.50;;
66802;SDS011;53705;49.860;8.744;2023-11-18T13:44:43;4.40;;;0.80;;
66802;SDS011;53705;49.860;8.744;2023-11-18T13:47:12;2.97;;;0.55;;
66802;SDS011;53705;49.860;8.744;2023-11-18T13:49:42;3.10;;;0.95;;
66802;SDS011;53705;49.860;8.744;2023-11-18T13:52:10;5.38;;;0.60;;
66802;SDS011;53705;49.860;8.744;2023-11-18T13:54:41;3.25;;;0.50;;
66802;SDS011;53705;49.860;8.744;2023-11-18T13:57:11;3.33;;;0.85;;
66802;SDS011;53705;49.860;8.744;2023-11-18T13:59:42;5.03;;;0.65;;
66802;SDS011;53705;49.860;8.744;2023-11-18T14:02:11;4.70;;;0.98;;
66802;SDS011;53705;49.860;8.744;2023-11-18T14:04:39;3.15;;;1.13;;
66802;SDS011;53705;49.860;8.744;2023-11-18T14:07:14;5.57;;;0.35;;
66802;SDS011;53705;49.860;8.744;2023-11-18T14:09:48;4.80;;;0.65;;
66802;SDS011;53705;49.860;8.744;2023-11-18T14:12:25;3.53;;;0.35;;
66802;SDS011;53705;49.860;8.744;2023-11-18T14:15:02;4.03;;;0.60;;
66802;SDS011;53705;49.860;8.744;2023-11-18T14:17:31;2.95;;;0.43;;
66802;SDS011;53705;49.860;8.744;2023-11-18T14:20:02;1.60;;;0.20;;
66802;SDS011;53705;49.860;8.744;2023-11-18T14:22:36;2.60;;;0.40;;
66802;SDS011;53705;49.860;8.744;2023-11-18T14:25:09;2.08;;;0.43;;
66802;SDS011;53705;49.860;8.744;2023-11-18T14:27:40;4.28;;;0.65;;
66802;SDS011;53705;49.860;8.744;2023-11-18T14:30:10;2.40;;;0.50;;
66802;SDS011;53705;49.860;8.744;2023-11-18T14:32:49;2.05;;;0.43;;
66802;SDS011;53705;49.860;8.744;2023-11-18T14:35:19;3.28;;;1.52;;
66802;SDS011;53705;49.860;8.744;2023-11-18T14:37:52;1.58;;;0.30;;
66802;SDS011;53705;49.860;8.744;2023-11-18T14:40:22;2.20;;;0.47;;
66802;SDS011;53705;49.860;8.744;2023-11-18T14:42:53;2.50;;;0.30;;
66802;SDS011;53705;49.860;8.744;2023-11-18T14:45:21;2.10;;;0.50;;
66802;SDS011;53705;49.860;8.744;2023-11-18T14:47:54;3.67;;;0.55;;
66802;SDS011;53705;49.860;8.744;2023-11-18T14:50:24;8.80;;;0.57;;
66802;SDS011;53705;49.860;8.744;2023-11-18T14:52:54;2.55;;;0.40;;
66802;SDS011;53705;49.860;8.744;2023-11-18T14:55:30;4.43;;;0.63;;
66802;SDS011;53705;49.860;8.744;2023-11-18T14:58:02;1.88;;;0.57;;
66802;SDS011;53705;49.860;8.744;2023-11-18T15:00:31;3.25;;;0.30;;
66802;SDS011;53705;49.860;8.744;2023-11-18T15:02:59;1.67;;;0.52;;
66802;SDS011;53705;49.860;8.744;2023-11-18T15:05:28;1.75;;;0.20;;
66802;SDS011;53705;49.860;8.744;2023-11-18T15:07:58;2.17;;;0.05;;
66802;SDS011;53705;49.860;8.744;2023-11-18T15:10:27;4.32;;;0.80;;
66802;SDS011;53705;49.860;8.744;2023-11-18T15:13:00;5.70;;;0.60;;
66802;SDS011;53705;49.860;8.744;2023-11-18T15:15:29;2.70;;;0.55;;
66802;SDS011;53705;49.860;8.744;2023-11-18T15:18:01;4.00;;;0.40;;
66802;SDS011;53705;49.860;8.744;2023-11-18T15:20:31;2.00;;;0.65;;
66802;SDS011;53705;49.860;8.744;2023-11-18T15:23:01;3.17;;;0.13;;
66802;SDS011;53705;49.860;8.744;2023-11-18T15:25:29;1.85;;;0.40;;
66802;SDS011;53705;49.860;8.744;2023-11-18T15:27:59;6.32;;;0.15;;
66802;SDS011;53705;49.860;8.744;2023-11-18T15:30:28;3.00;;;0.15;;